sensor_id;sensor_type;location;lat;lon;timestamp;pressure;altitude;pressure_sealevel;temperature;humidity
3428;BME280;1727;42.624;23.406;2023-05-29T00:00:00;94667.81;;;15.89;100.00
3428;BME280;1727;42.624;23.406;2023-05-29T00:02:30;94663.69;;;15.86;100.00
3428;BME280;1727;42.624;23.406;2023-05-29T00:04:57;94657.25;;;15.80;100.00
3428;BME280;1727;42.624;23.406;2023-05-29T00:07:25;94655.06;;;15.84;100.00
3428;BME280;1727;42.624;23.406;2023-05-29T00:09:52;94660.53;;;15.83;100.00
3428;BME280;1727;42.624;23.406;2023-05-29T00:12:19;94655.41;;;15.81;100.00
3428;BME280;1727;42.624;23.406;2023-05-29T00:14:48;94654.59;;;15.80;100.00
3428;BME280;1727;42.624;23.406;2023-05-29T00:17:15;94653.94;;;15.78;100.00
3428;BME280;1727;42.624;23.406;2023-05-29T00:19:42;94654.28;;;15.75;100.00
3428;BME280;1727;42.624;23.406;2023-05-29T00:22:09;94659.56;;;15.75;100.00
3428;BME280;1727;42.624;23.406;2023-05-29T00:24:37;94661.38;;;15.75;100.00
3428;BME280;1727;42.624;23.406;2023-05-29T00:27:04;94660.56;;;15.74;100.00
3428;BME280;1727;42.624;23.406;2023-05-29T00:29:31;94653.94;;;15.70;100.00
3428;BME280;1727;42.624;23.406;2023-05-29T00:31:58;94653.94;;;15.70;100.00
3428;BME280;1727;42.624;23.406;2023-05-29T00:34:25;94662.88;;;15.69;100.00
3428;BME280;1727;42.624;23.406;2023-05-29T00:36:52;94668.03;;;15.63;100.00
3428;BME280;1727;42.624;23.406;2023-05-29T00:39:20;94664.22;;;15.65;100.00
3428;BME280;1727;42.624;23.406;2023-05-29T00:41:48;94665.69;;;15.68;100.00
3428;BME280;1727;42.624;23.406;2023-05-29T00:44:17;94657.75;;;15.68;100.00
3428;BME280;1727;42.624;23.406;2023-05-29T00:46:43;94662.06;;;15.69;100.00
3428;BME280;1727;42.624;23.406;2023-05-29T00:49:10;94663.22;;;15.66;100.00
3428;BME280;1727;42.624;23.406;2023-05-29T00:51:38;94660.41;;;15.68;100.00
3428;BME280;1727;42.624;23.406;2023-05-29T00:54:07;94650.16;;;15.65;100.00
3428;BME280;1727;42.624;23.406;2023-05-29T00:56:34;94648.69;;;15.62;100.00
3428;BME280;1727;42.624;23.406;2023-05-29T00:59:03;94641.06;;;15.59;100.00
3428;BME280;1727;42.624;23.406;2023-05-29T01:01:30;94643.34;;;15.54;100.00
3428;BME280;1727;42.624;23.406;2023-05-29T01:03:59;94635.94;;;15.41;100.00
3428;BME280;1727;42.624;23.406;2023-05-29T01:06:27;94647.97;;;15.44;100.00
3428;BME280;1727;42.624;23.406;2023-05-29T01:08:54;94648.81;;;15.44;100.00
3428;BME280;1727;42.624;23.406;2023-05-29T01:11:26;94645.50;;;15.42;100.00
3428;BME280;1727;42.624;23.406;2023-05-29T01:13:57;94647.31;;;15.42;100.00
3428;BME280;1727;42.624;23.406;2023-05-29T01:16:31;94657.41;;;15.46;100.00
3428;BME280;1727;42.624;23.406;2023-05-29T01:19:10;94654.59;;;15.48;100.00
3428;BME280;1727;42.624;23.406;2023-05-29T01:21:51;94647.97;;;15.44;100.00
3428;BME280;1727;42.624;23.406;2023-05-29T01:24:26;94651.78;;;15.41;100.00
3428;BME280;1727;42.624;23.406;2023-05-29T01:26:58;94651.63;;;15.43;100.00
3428;BME280;1727;42.624;23.406;2023-05-29T01:29:29;94646.00;;;15.38;100.00
3428;BME280;1727;42.624;23.406;2023-05-29T01:31:58;94648.66;;;15.38;100.00
3428;BME280;1727;42.624;23.406;2023-05-29T01:34:25;94648.16;;;15.34;100.00
3428;BME280;1727;42.624;23.406;2023-05-29T01:36:51;94650.97;;;15.33;100.00
3428;BME280;1727;42.624;23.406;2023-05-29T01:39:19;94644.81;;;15.32;100.00
3428;BME280;1727;42.624;23.406;2023-05-29T01:41:47;94654.56;;;15.32;100.00
3428;BME280;1727;42.624;23.406;2023-05-29T01:44:16;94644.16;;;15.30;100.00
3428;BME280;1727;42.624;23.406;2023-05-29T01:46:44;94639.22;;;15.27;100.00
3428;BME280;1727;42.624;23.406;2023-05-29T01:49:11;94651.09;;;15.31;100.00
3428;BME280;1727;42.624;23.406;2023-05-29T01:51:39;94649.28;;;15.32;100.00
3428;BME280;1727;42.624;23.406;2023-05-29T01:54:06;94643.50;;;15.28;100.00
3428;BME280;1727;42.624;23.406;2023-05-29T01:56:34;94639.38;;;15.26;100.00
3428;BME280;1727;42.624;23.406;2023-05-29T01:59:02;94654.41;;;15.25;100.00
3428;BME280;1727;42.624;23.406;2023-05-29T02:01:31;94642.53;;;15.21;100.00
3428;BME280;1727;42.624;23.406;2023-05-29T02:03:57;94642.19;;;15.24;100.00
3428;BME280;1727;42.624;23.406;2023-05-29T02:06:24;94642.19;;;15.24;100.00
3428;BME280;1727;42.624;23.406;2023-05-29T02:08:51;94634.25;;;15.24;100.00
3428;BME280;1727;42.624;23.406;2023-05-29T02:11:18;94635.75;;;15.27;100.00
3428;BME280;1727;42.624;23.406;2023-05-29T02:13:45;94633.09;;;15.27;100.00
3428;BME280;1727;42.624;23.406;2023-05-29T02:16:12;94638.22;;;15.28;100.00
3428;BME280;1727;42.624;23.406;2023-05-29T02:18:40;94626.00;;;15.27;100.00
3428;BME280;1727;42.624;23.406;2023-05-29T02:21:08;94639.03;;;15.29;100.00
3428;BME280;1727;42.624;23.406;2023-05-29T02:23:35;94638.22;;;15.28;100.00
3428;BME280;1727;42.624;23.406;2023-05-29T02:26:02;94643.84;;;15.25;100.00
3428;BME280;1727;42.624;23.406;2023-05-29T02:28:29;94638.72;;;15.24;100.00
3428;BME280;1727;42.624;23.406;2023-05-29T02:30:55;94642.19;;;15.24;100.00
3428;BME280;1727;42.624;23.406;2023-05-29T02:33:22;94640.19;;;15.26;100.00
3428;BME280;1727;42.624;23.406;2023-05-29T02:35:50;94640.19;;;15.26;100.00
3428;BME280;1727;42.624;23.406;2023-05-29T02:38:17;94649.13;;;15.25;100.00
3428;BME280;1727;42.624;23.406;2023-05-29T02:40:44;94645.00;;;15.23;100.00
3428;BME280;1727;42.624;23.406;2023-05-29T02:43:13;94647.47;;;15.24;100.00
3428;BME280;1727;42.624;23.406;2023-05-29T02:45:39;94654.25;;;15.27;100.00
3428;BME280;1727;42.624;23.406;2023-05-29T02:48:06;94661.34;;;15.26;100.00
3428;BME280;1727;42.624;23.406;2023-05-29T02:50:33;94653.59;;;15.25;100.00
3428;BME280;1727;42.624;23.406;2023-05-29T02:53:01;94657.72;;;15.27;100.00
3428;BME280;1727;42.624;23.406;2023-05-29T02:55:28;94648.47;;;15.31;100.00
3428;BME280;1727;42.624;23.406;2023-05-29T02:57:57;94650.13;;;15.32;100.00
3428;BME280;1727;42.624;23.406;2023-05-29T03:00:25;94648.47;;;15.31;100.00
3428;BME280;1727;42.624;23.406;2023-05-29T03:02:53;94648.78;;;15.28;100.00
3428;BME280;1727;42.624;23.406;2023-05-29T03:05:20;94658.38;;;15.29;100.00
3428;BME280;1727;42.624;23.406;2023-05-29T03:07:47;94655.41;;;15.32;100.00
3428;BME280;1727;42.624;23.406;2023-05-29T03:10:15;94669.47;;;15.33;100.00
3428;BME280;1727;42.624;23.406;2023-05-29T03:12:42;94660.03;;;15.30;100.00
3428;BME280;1727;42.624;23.406;2023-05-29T03:15:10;94661.22;;;15.36;100.00
3428;BME280;1727;42.624;23.406;2023-05-29T03:17:37;94655.25;;;15.42;100.00
3428;BME280;1727;42.624;23.406;2023-05-29T03:20:05;94646.66;;;15.48;100.00
3428;BME280;1727;42.624;23.406;2023-05-29T03:22:33;94654.25;;;15.51;100.00
3428;BME280;1727;42.624;23.406;2023-05-29T03:25:01;94652.44;;;15.52;100.00
3428;BME280;1727;42.624;23.406;2023-05-29T03:27:30;94652.44;;;15.52;100.00
3428;BME280;1727;42.624;23.406;2023-05-29T03:29:57;94656.72;;;15.53;100.00
3428;BME280;1727;42.624;23.406;2023-05-29T03:32:24;94659.88;;;15.48;100.00
3428;BME280;1727;42.624;23.406;2023-05-29T03:34:51;94663.19;;;15.50;100.00
3428;BME280;1727;42.624;23.406;2023-05-29T03:37:18;94677.56;;;15.56;100.00
3428;BME280;1727;42.624;23.406;2023-05-29T03:39:45;94667.50;;;15.59;100.00
3428;BME280;1727;42.624;23.406;2023-05-29T03:42:12;94674.78;;;15.65;100.00
3428;BME280;1727;42.624;23.406;2023-05-29T03:44:40;94683.53;;;15.74;100.00
3428;BME280;1727;42.624;23.406;2023-05-29T03:47:07;94678.25;;;15.82;100.00
3428;BME280;1727;42.624;23.406;2023-05-29T03:49:34;94680.91;;;15.90;100.00
3428;BME280;1727;42.624;23.406;2023-05-29T03:52:01;94681.22;;;15.95;100.00
3428;BME280;1727;42.624;23.406;2023-05-29T03:54:28;94681.53;;;16.00;100.00
3428;BME280;1727;42.624;23.406;2023-05-29T03:56:55;94685.97;;;16.08;100.00
3428;BME280;1727;42.624;23.406;2023-05-29T03:59:21;94681.16;;;16.11;100.00
3428;BME280;1727;42.624;23.406;2023-05-29T04:01:50;94686.88;;;16.39;100.00
3428;BME280;1727;42.624;23.406;2023-05-29T04:04:16;94682.19;;;16.97;100.00
3428;BME280;1727;42.624;23.406;2023-05-29T04:06:43;94700.00;;;17.65;97.21
3428;BME280;1727;42.624;23.406;2023-05-29T04:09:10;94704.91;;;18.14;93.11
3428;BME280;1727;42.624;23.406;2023-05-29T04:11:37;94715.41;;;18.60;91.00
3428;BME280;1727;42.624;23.406;2023-05-29T04:14:04;94720.66;;;18.82;88.47
3428;BME280;1727;42.624;23.406;2023-05-29T04:16:30;94720.47;;;18.84;87.74
3428;BME280;1727;42.624;23.406;2023-05-29T04:18:59;94718.63;;;18.84;87.79
3428;BME280;1727;42.624;23.406;2023-05-29T04:21:25;94716.88;;;18.77;88.42
3428;BME280;1727;42.624;23.406;2023-05-29T04:23:52;94719.63;;;18.69;88.47
3428;BME280;1727;42.624;23.406;2023-05-29T04:26:20;94714.56;;;18.59;88.86
3428;BME280;1727;42.624;23.406;2023-05-29T04:28:50;94709.88;;;18.46;89.32
3428;BME280;1727;42.624;23.406;2023-05-29T04:31:18;94716.28;;;18.37;90.29
3428;BME280;1727;42.624;23.406;2023-05-29T04:33:48;94711.44;;;18.26;91.27
3428;BME280;1727;42.624;23.406;2023-05-29T04:36:16;94717.75;;;18.25;91.73
3428;BME280;1727;42.624;23.406;2023-05-29T04:38:42;94717.28;;;18.21;92.15
3428;BME280;1727;42.624;23.406;2023-05-29T04:41:10;94713.78;;;18.21;92.66
3428;BME280;1727;42.624;23.406;2023-05-29T04:43:37;94720.22;;;18.26;93.50
3428;BME280;1727;42.624;23.406;2023-05-29T04:46:05;94712.06;;;18.43;95.62
3428;BME280;1727;42.624;23.406;2023-05-29T04:48:37;94709.50;;;18.49;92.74
3428;BME280;1727;42.624;23.406;2023-05-29T04:51:06;94715.75;;;18.42;91.01
3428;BME280;1727;42.624;23.406;2023-05-29T04:53:37;94719.50;;;18.33;90.98
3428;BME280;1727;42.624;23.406;2023-05-29T04:56:05;94725.09;;;18.23;91.44
3428;BME280;1727;42.624;23.406;2023-05-29T04:58:32;94724.97;;;18.16;92.75
3428;BME280;1727;42.624;23.406;2023-05-29T05:00:59;94727.69;;;18.08;92.73
3428;BME280;1727;42.624;23.406;2023-05-29T05:03:28;94731.25;;;18.01;93.20
3428;BME280;1727;42.624;23.406;2023-05-29T05:05:56;94737.03;;;18.04;93.65
3428;BME280;1727;42.624;23.406;2023-05-29T05:08:23;94735.28;;;18.11;93.70
3428;BME280;1727;42.624;23.406;2023-05-29T05:10:51;94741.47;;;18.26;94.54
3428;BME280;1727;42.624;23.406;2023-05-29T05:13:17;94743.22;;;18.34;93.64
3428;BME280;1727;42.624;23.406;2023-05-29T05:15:44;94747.28;;;18.60;93.75
3428;BME280;1727;42.624;23.406;2023-05-29T05:18:11;94752.34;;;19.13;91.31
3428;BME280;1727;42.624;23.406;2023-05-29T05:20:38;94754.03;;;19.36;88.18
3428;BME280;1727;42.624;23.406;2023-05-29T05:23:05;94754.38;;;19.47;88.14
3428;BME280;1727;42.624;23.406;2023-05-29T05:25:32;94738.91;;;19.72;95.46
3428;BME280;1727;42.624;23.406;2023-05-29T05:28:01;94739.66;;;19.88;94.06
3428;BME280;1727;42.624;23.406;2023-05-29T05:30:29;94749.88;;;20.05;93.22
3428;BME280;1727;42.624;23.406;2023-05-29T05:32:56;94746.97;;;20.00;89.93
3428;BME280;1727;42.624;23.406;2023-05-29T05:35:23;94748.81;;;20.00;90.89
3428;BME280;1727;42.624;23.406;2023-05-29T05:37:50;94742.47;;;20.01;92.56
3428;BME280;1727;42.624;23.406;2023-05-29T05:40:16;94739.34;;;19.97;94.04
3428;BME280;1727;42.624;23.406;2023-05-29T05:42:43;94737.03;;;19.94;94.59
3428;BME280;1727;42.624;23.406;2023-05-29T05:45:11;94736.59;;;19.91;91.86
3428;BME280;1727;42.624;23.406;2023-05-29T05:47:38;94751.19;;;19.95;90.00
3428;BME280;1727;42.624;23.406;2023-05-29T05:50:06;94737.50;;;19.98;91.42
3428;BME280;1727;42.624;23.406;2023-05-29T05:52:32;94736.59;;;20.12;93.26
3428;BME280;1727;42.624;23.406;2023-05-29T05:54:59;94747.19;;;20.27;93.53
3428;BME280;1727;42.624;23.406;2023-05-29T05:57:26;94751.31;;;20.29;87.86
3428;BME280;1727;42.624;23.406;2023-05-29T05:59:53;94752.13;;;20.30;86.73
3428;BME280;1727;42.624;23.406;2023-05-29T06:02:21;94753.25;;;20.21;84.53
3428;BME280;1727;42.624;23.406;2023-05-29T06:04:48;94759.31;;;20.08;83.29
3428;BME280;1727;42.624;23.406;2023-05-29T06:07:15;94755.19;;;20.05;85.26
3428;BME280;1727;42.624;23.406;2023-05-29T06:09:43;94749.72;;;19.92;87.95
3428;BME280;1727;42.624;23.406;2023-05-29T06:12:10;94742.25;;;19.81;86.31
3428;BME280;1727;42.624;23.406;2023-05-29T06:14:37;94745.25;;;19.71;87.77
3428;BME280;1727;42.624;23.406;2023-05-29T06:17:04;94749.78;;;19.56;88.21
3428;BME280;1727;42.624;23.406;2023-05-29T06:19:32;94755.31;;;19.40;86.43
3428;BME280;1727;42.624;23.406;2023-05-29T06:21:59;94762.66;;;19.38;87.86
3428;BME280;1727;42.624;23.406;2023-05-29T06:24:26;94756.72;;;19.21;89.59
3428;BME280;1727;42.624;23.406;2023-05-29T06:26:53;94763.69;;;19.22;90.63
3428;BME280;1727;42.624;23.406;2023-05-29T06:29:20;94753.63;;;19.17;91.01
3428;BME280;1727;42.624;23.406;2023-05-29T06:31:47;94756.16;;;19.26;99.08
3428;BME280;1727;42.624;23.406;2023-05-29T06:34:13;94755.91;;;19.21;90.19
3428;BME280;1727;42.624;23.406;2023-05-29T06:36:41;94759.28;;;19.29;93.69
3428;BME280;1727;42.624;23.406;2023-05-29T06:39:09;94751.59;;;19.70;93.44
3428;BME280;1727;42.624;23.406;2023-05-29T06:41:36;94747.53;;;19.96;88.82
3428;BME280;1727;42.624;23.406;2023-05-29T06:44:06;94755.63;;;20.09;85.33
3428;BME280;1727;42.624;23.406;2023-05-29T06:46:32;94753.81;;;20.37;92.03
3428;BME280;1727;42.624;23.406;2023-05-29T06:48:59;94754.09;;;20.42;85.04
3428;BME280;1727;42.624;23.406;2023-05-29T06:51:26;94759.94;;;20.31;83.62
3428;BME280;1727;42.624;23.406;2023-05-29T06:53:54;94763.50;;;20.66;84.87
3428;BME280;1727;42.624;23.406;2023-05-29T06:56:21;94762.03;;;21.33;84.20
3428;BME280;1727;42.624;23.406;2023-05-29T06:58:48;94767.41;;;22.07;78.37
3428;BME280;1727;42.624;23.406;2023-05-29T07:01:15;94763.09;;;22.72;81.25
3428;BME280;1727;42.624;23.406;2023-05-29T07:03:42;94763.38;;;23.35;75.46
3428;BME280;1727;42.624;23.406;2023-05-29T07:06:09;94775.13;;;23.34;69.32
3428;BME280;1727;42.624;23.406;2023-05-29T07:08:35;94777.34;;;23.57;70.00
3428;BME280;1727;42.624;23.406;2023-05-29T07:11:04;94769.00;;;23.78;69.74
3428;BME280;1727;42.624;23.406;2023-05-29T07:13:30;94781.97;;;23.82;68.12
3428;BME280;1727;42.624;23.406;2023-05-29T07:15:57;94777.28;;;23.64;68.28
3428;BME280;1727;42.624;23.406;2023-05-29T07:18:24;94779.16;;;23.63;66.90
3428;BME280;1727;42.624;23.406;2023-05-29T07:20:50;94781.28;;;23.93;67.63
3428;BME280;1727;42.624;23.406;2023-05-29T07:23:17;94763.31;;;23.93;65.43
3428;BME280;1727;42.624;23.406;2023-05-29T07:25:44;94765.03;;;24.19;67.21
3428;BME280;1727;42.624;23.406;2023-05-29T07:28:13;94769.06;;;24.35;64.82
3428;BME280;1727;42.624;23.406;2023-05-29T07:30:39;94768.69;;;24.56;65.23
3428;BME280;1727;42.624;23.406;2023-05-29T07:33:06;94762.16;;;24.46;66.12
3428;BME280;1727;42.624;23.406;2023-05-29T07:35:33;94760.44;;;23.95;63.52
3428;BME280;1727;42.624;23.406;2023-05-29T07:38:00;94760.19;;;23.71;65.37
3428;BME280;1727;42.624;23.406;2023-05-29T07:40:26;94762.69;;;23.53;67.11
3428;BME280;1727;42.624;23.406;2023-05-29T07:42:53;94764.44;;;23.28;67.88
3428;BME280;1727;42.624;23.406;2023-05-29T07:45:21;94757.25;;;23.22;68.54
3428;BME280;1727;42.624;23.406;2023-05-29T07:47:48;94765.69;;;23.25;68.10
3428;BME280;1727;42.624;23.406;2023-05-29T07:50:15;94755.25;;;23.62;67.84
3428;BME280;1727;42.624;23.406;2023-05-29T07:52:42;94760.91;;;24.17;66.09
3428;BME280;1727;42.624;23.406;2023-05-29T07:55:09;94759.00;;;24.55;64.24
3428;BME280;1727;42.624;23.406;2023-05-29T07:57:36;94758.16;;;24.80;63.90
3428;BME280;1727;42.624;23.406;2023-05-29T08:00:03;94754.16;;;24.89;64.80
3428;BME280;1727;42.624;23.406;2023-05-29T08:02:35;94759.78;;;24.81;61.47
3428;BME280;1727;42.624;23.406;2023-05-29T08:05:02;94755.50;;;24.98;62.56
3428;BME280;1727;42.624;23.406;2023-05-29T08:07:29;94759.50;;;24.70;61.52
3428;BME280;1727;42.624;23.406;2023-05-29T08:09:57;94752.25;;;24.46;63.81
3428;BME280;1727;42.624;23.406;2023-05-29T08:12:24;94755.72;;;24.22;64.36
3428;BME280;1727;42.624;23.406;2023-05-29T08:14:51;94757.94;;;24.00;63.38
3428;BME280;1727;42.624;23.406;2023-05-29T08:17:17;94751.75;;;23.55;66.40
3428;BME280;1727;42.624;23.406;2023-05-29T08:19:46;94749.28;;;23.60;66.92
3428;BME280;1727;42.624;23.406;2023-05-29T08:22:14;94740.28;;;23.41;67.16
3428;BME280;1727;42.624;23.406;2023-05-29T08:24:41;94752.44;;;23.43;68.28
3428;BME280;1727;42.624;23.406;2023-05-29T08:27:08;94748.38;;;23.28;69.01
3428;BME280;1727;42.624;23.406;2023-05-29T08:29:35;94753.84;;;23.53;72.55
3428;BME280;1727;42.624;23.406;2023-05-29T08:32:04;94751.50;;;23.76;67.76
3428;BME280;1727;42.624;23.406;2023-05-29T08:34:30;94758.19;;;23.40;64.98
3428;BME280;1727;42.624;23.406;2023-05-29T08:36:59;94756.16;;;23.36;66.69
3428;BME280;1727;42.624;23.406;2023-05-29T08:39:25;94748.22;;;23.09;67.47
3428;BME280;1727;42.624;23.406;2023-05-29T08:41:59;94749.72;;;22.92;68.19
3428;BME280;1727;42.624;23.406;2023-05-29T08:44:30;94747.03;;;22.99;68.38
3428;BME280;1727;42.624;23.406;2023-05-29T08:47:01;94739.16;;;23.17;69.19
3428;BME280;1727;42.624;23.406;2023-05-29T08:49:33;94732.22;;;23.41;69.79
3428;BME280;1727;42.624;23.406;2023-05-29T08:52:09;94728.06;;;23.58;67.25
3428;BME280;1727;42.624;23.406;2023-05-29T08:54:39;94736.13;;;23.52;64.85
3428;BME280;1727;42.624;23.406;2023-05-29T08:57:06;94734.00;;;23.67;65.54
3428;BME280;1727;42.624;23.406;2023-05-29T08:59:33;94730.53;;;23.60;65.81
3428;BME280;1727;42.624;23.406;2023-05-29T09:02:01;94731.38;;;23.54;64.87
3428;BME280;1727;42.624;23.406;2023-05-29T09:04:28;94723.88;;;23.69;64.46
3428;BME280;1727;42.624;23.406;2023-05-29T09:06:56;94732.72;;;23.76;64.16
3428;BME280;1727;42.624;23.406;2023-05-29T09:09:25;94726.94;;;23.28;64.09
3428;BME280;1727;42.624;23.406;2023-05-29T09:11:53;94732.78;;;23.05;66.70
3428;BME280;1727;42.624;23.406;2023-05-29T09:14:32;94728.34;;;22.85;67.26
3428;BME280;1727;42.624;23.406;2023-05-29T09:17:01;94711.84;;;22.75;67.66
3428;BME280;1727;42.624;23.406;2023-05-29T09:19:28;94718.84;;;22.70;68.00
3428;BME280;1727;42.624;23.406;2023-05-29T09:22:00;94707.75;;;22.53;66.72
3428;BME280;1727;42.624;23.406;2023-05-29T09:24:29;94701.97;;;22.69;67.38
3428;BME280;1727;42.624;23.406;2023-05-29T09:26:56;94706.66;;;23.00;68.66
3428;BME280;1727;42.624;23.406;2023-05-29T09:29:25;94700.75;;;23.36;64.72
3428;BME280;1727;42.624;23.406;2023-05-29T09:31:51;94701.03;;;23.66;63.53
3428;BME280;1727;42.624;23.406;2023-05-29T09:34:18;94703.16;;;23.89;62.44
3428;BME280;1727;42.624;23.406;2023-05-29T09:36:45;94697.75;;;23.96;63.66
3428;BME280;1727;42.624;23.406;2023-05-29T09:39:12;94685.50;;;24.06;62.51
3428;BME280;1727;42.624;23.406;2023-05-29T09:41:43;94688.97;;;24.14;62.98
3428;BME280;1727;42.624;23.406;2023-05-29T09:44:12;94693.13;;;24.09;62.11
3428;BME280;1727;42.624;23.406;2023-05-29T09:46:39;94686.59;;;23.99;61.46
3428;BME280;1727;42.624;23.406;2023-05-29T09:49:12;94682.41;;;23.78;62.37
3428;BME280;1727;42.624;23.406;2023-05-29T09:51:39;94679.41;;;23.61;62.12
3428;BME280;1727;42.624;23.406;2023-05-29T09:54:13;94691.72;;;23.31;63.12
3428;BME280;1727;42.624;23.406;2023-05-29T09:56:43;94688.94;;;23.06;64.30
3428;BME280;1727;42.624;23.406;2023-05-29T09:59:11;94684.41;;;23.06;65.08
3428;BME280;1727;42.624;23.406;2023-05-29T10:01:40;94674.25;;;23.22;65.42
3428;BME280;1727;42.624;23.406;2023-05-29T10:04:09;94676.22;;;23.39;63.78
3428;BME280;1727;42.624;23.406;2023-05-29T10:06:39;94687.13;;;23.44;62.54
3428;BME280;1727;42.624;23.406;2023-05-29T10:09:09;94678.28;;;23.37;63.21
3428;BME280;1727;42.624;23.406;2023-05-29T10:11:38;94680.00;;;23.25;63.71
3428;BME280;1727;42.624;23.406;2023-05-29T10:14:10;94681.91;;;23.11;61.86
3428;BME280;1727;42.624;23.406;2023-05-29T10:16:39;94679.25;;;23.05;63.06
3428;BME280;1727;42.624;23.406;2023-05-29T10:19:12;94675.97;;;23.03;63.22
3428;BME280;1727;42.624;23.406;2023-05-29T10:21:40;94675.91;;;23.23;63.53
3428;BME280;1727;42.624;23.406;2023-05-29T10:24:08;94659.75;;;23.36;62.50
3428;BME280;1727;42.624;23.406;2023-05-29T10:26:39;94669.19;;;23.45;63.14
3428;BME280;1727;42.624;23.406;2023-05-29T10:29:15;94665.97;;;23.68;62.51
3428;BME280;1727;42.624;23.406;2023-05-29T10:31:50;94665.22;;;23.61;61.96
3428;BME280;1727;42.624;23.406;2023-05-29T10:34:29;94660.78;;;23.35;60.75
3428;BME280;1727;42.624;23.406;2023-05-29T10:37:04;94668.94;;;23.08;61.73
3428;BME280;1727;42.624;23.406;2023-05-29T10:39:33;94672.16;;;22.52;62.35
3428;BME280;1727;42.624;23.406;2023-05-29T10:42:00;94667.44;;;22.61;64.27
3428;BME280;1727;42.624;23.406;2023-05-29T10:44:40;94658.16;;;22.70;68.89
3428;BME280;1727;42.624;23.406;2023-05-29T10:47:07;94655.44;;;22.77;65.93
3428;BME280;1727;42.624;23.406;2023-05-29T10:49:36;94659.19;;;22.69;65.38
3428;BME280;1727;42.624;23.406;2023-05-29T10:52:04;94660.41;;;22.86;67.98
3428;BME280;1727;42.624;23.406;2023-05-29T10:54:41;94662.66;;;22.90;65.74
3428;BME280;1727;42.624;23.406;2023-05-29T10:57:17;94649.09;;;22.84;65.96
3428;BME280;1727;42.624;23.406;2023-05-29T10:59:46;94647.63;;;22.89;68.11
3428;BME280;1727;42.624;23.406;2023-05-29T11:02:17;94643.50;;;22.93;66.56
3428;BME280;1727;42.624;23.406;2023-05-29T11:05:04;94635.59;;;23.04;65.36
3428;BME280;1727;42.624;23.406;2023-05-29T11:07:34;94635.19;;;23.14;64.82
3428;BME280;1727;42.624;23.406;2023-05-29T11:10:11;94632.50;;;23.14;63.43
3428;BME280;1727;42.624;23.406;2023-05-29T11:12:57;94636.00;;;23.14;66.27
3428;BME280;1727;42.624;23.406;2023-05-29T11:15:26;94636.03;;;23.01;65.56
3428;BME280;1727;42.624;23.406;2023-05-29T11:17:53;94639.59;;;22.89;65.27
3428;BME280;1727;42.624;23.406;2023-05-29T11:20:36;94634.72;;;22.59;64.91
3428;BME280;1727;42.624;23.406;2023-05-29T11:23:07;94628.78;;;22.57;66.17
3428;BME280;1727;42.624;23.406;2023-05-29T11:25:35;94628.56;;;22.52;66.82
3428;BME280;1727;42.624;23.406;2023-05-29T11:28:04;94622.41;;;22.58;68.69
3428;BME280;1727;42.624;23.406;2023-05-29T11:30:45;94616.38;;;22.69;68.77
3428;BME280;1727;42.624;23.406;2023-05-29T11:33:20;94613.47;;;22.91;70.33
3428;BME280;1727;42.624;23.406;2023-05-29T11:35:55;94605.50;;;23.15;71.42
3428;BME280;1727;42.624;23.406;2023-05-29T11:38:23;94620.41;;;23.36;69.09
3428;BME280;1727;42.624;23.406;2023-05-29T11:40:49;94623.88;;;23.43;66.71
3428;BME280;1727;42.624;23.406;2023-05-29T11:43:16;94624.94;;;23.36;66.75
3428;BME280;1727;42.624;23.406;2023-05-29T11:45:45;94629.28;;;22.92;69.81
3428;BME280;1727;42.624;23.406;2023-05-29T11:48:11;94634.19;;;22.31;70.36
3428;BME280;1727;42.624;23.406;2023-05-29T11:50:38;94640.75;;;21.88;72.25
3428;BME280;1727;42.624;23.406;2023-05-29T11:53:06;94628.41;;;21.68;75.56
3428;BME280;1727;42.624;23.406;2023-05-29T11:55:33;94641.56;;;20.88;81.32
3428;BME280;1727;42.624;23.406;2023-05-29T11:58:01;94644.28;;;20.60;82.92
3428;BME280;1727;42.624;23.406;2023-05-29T12:00:31;94636.91;;;20.28;83.36
3428;BME280;1727;42.624;23.406;2023-05-29T12:03:00;94644.22;;;20.19;83.43
3428;BME280;1727;42.624;23.406;2023-05-29T12:05:29;94639.03;;;20.11;83.34
3428;BME280;1727;42.624;23.406;2023-05-29T12:07:57;94645.72;;;20.28;84.46
3428;BME280;1727;42.624;23.406;2023-05-29T12:10:27;94635.38;;;20.40;84.18
3428;BME280;1727;42.624;23.406;2023-05-29T12:12:55;94636.69;;;20.57;83.02
3428;BME280;1727;42.624;23.406;2023-05-29T12:15:22;94648.25;;;20.78;82.36
3428;BME280;1727;42.624;23.406;2023-05-29T12:17:50;94638.91;;;21.01;82.74
3428;BME280;1727;42.624;23.406;2023-05-29T12:20:19;94642.06;;;21.18;83.29
3428;BME280;1727;42.624;23.406;2023-05-29T12:22:48;94644.59;;;21.33;83.11
3428;BME280;1727;42.624;23.406;2023-05-29T12:25:17;94640.88;;;21.34;80.88
3428;BME280;1727;42.624;23.406;2023-05-29T12:27:46;94641.50;;;21.36;79.81
3428;BME280;1727;42.624;23.406;2023-05-29T12:30:20;94637.03;;;21.43;79.46
3428;BME280;1727;42.624;23.406;2023-05-29T12:32:48;94633.13;;;21.52;80.86
3428;BME280;1727;42.624;23.406;2023-05-29T12:35:19;94633.94;;;21.53;79.82
3428;BME280;1727;42.624;23.406;2023-05-29T12:37:47;94635.78;;;21.59;79.32
3428;BME280;1727;42.624;23.406;2023-05-29T12:40:19;94636.03;;;21.71;78.63
3428;BME280;1727;42.624;23.406;2023-05-29T12:42:47;94635.59;;;21.87;78.54
3428;BME280;1727;42.624;23.406;2023-05-29T12:45:14;94627.16;;;21.96;77.53
3428;BME280;1727;42.624;23.406;2023-05-29T12:47:51;94618.97;;;21.98;76.96
3428;BME280;1727;42.624;23.406;2023-05-29T12:50:22;94624.13;;;22.00;76.33
3428;BME280;1727;42.624;23.406;2023-05-29T12:52:59;94613.81;;;21.96;76.69
3428;BME280;1727;42.624;23.406;2023-05-29T12:55:27;94629.25;;;22.01;77.04
3428;BME280;1727;42.624;23.406;2023-05-29T12:57:54;94622.25;;;21.93;79.99
3428;BME280;1727;42.624;23.406;2023-05-29T13:00:21;94620.41;;;21.74;83.34
3428;BME280;1727;42.624;23.406;2023-05-29T13:02:49;94623.06;;;21.54;85.75
3428;BME280;1727;42.624;23.406;2023-05-29T13:05:16;94623.44;;;21.25;86.23
3428;BME280;1727;42.624;23.406;2023-05-29T13:07:46;94622.88;;;20.88;88.27
3428;BME280;1727;42.624;23.406;2023-05-29T13:10:13;94628.72;;;20.64;89.33
3428;BME280;1727;42.624;23.406;2023-05-29T13:12:40;94622.66;;;20.42;92.61